Time;durP1;ratioP1;P1;durP2;ratioP2;P2;SDS_P1;SDS_P2;PMS_P1;PMS_P2;Temp;Humidity;BMP_temperature;BMP_pressure;BME280_temperature;BME280_humidity;BME280_pressure;Samples;Min_cycle;Max_cycle;Signal;HPM_P1;HPM_P2
2022/02/07 00:01:30;;;;;;;;;;;;;;;9.93;55.82;98662.81;4358533;32;36044;-86
2022/02/07 00:04:00;;;;;;;;;;;;;;;9.84;56.05;98663.81;4364108;32;34216;-86
2022/02/07 00:06:28;;;;;;;;;;;;;;;9.95;55.52;98663.50;4363262;32;34839;-86
2022/02/07 00:08:56;;;;;;;;;;;;;;;10.09;55.10;98657.50;4374006;32;34285;-85
2022/02/07 00:11:25;;;;;;;;;;;;;;;9.89;55.41;98650.88;4364863;32;36711;-85
2022/02/07 00:13:53;;;;;;;;;;;;;;;9.93;55.34;98660.16;4377242;32;34623;-85
2022/02/07 00:16:21;;;;;;;;;;;;;;;9.54;56.14;98676.94;4377586;32;34123;-86
2022/02/07 00:18:50;;;;;;;;;;;;;;;9.93;55.43;98677.94;4366930;32;34780;-86
2022/02/07 00:21:18;;;;;;;;;;;;;;;9.56;56.51;98682.91;4360268;32;36106;-86
2022/02/07 00:23:46;;;;;;;;;;;;;;;9.80;55.80;98675.78;4375123;32;35771;-85
2022/02/07 00:26:15;;;;;;;;;;;;;;;9.88;55.53;98672.28;4346601;32;33535;-85
2022/02/07 00:28:43;;;;;;;;;;;;;;;9.42;56.58;98675.56;4363549;32;33788;-86
2022/02/07 00:31:12;;;;;;;;;;;;;;;9.63;56.11;98658.19;4376688;32;34819;-85
2022/02/07 00:33:42;;;;;;;;;;;;;;;9.58;56.16;98649.91;4370063;32;34772;-86
2022/02/07 00:36:13;;;;;;;;;;;;;;;9.46;56.29;98651.19;4349636;32;32981;-85
2022/02/07 00:38:49;;;;;;;;;;;;;;;9.15;57.06;98636.91;4374791;32;33993;-85
2022/02/07 00:41:20;;;;;;;;;;;;;;;8.82;57.76;98626.38;4377560;32;35262;-85
2022/02/07 00:43:54;;;;;;;;;;;;;;;8.90;57.76;98619.25;4364143;32;34475;-86
2022/02/07 00:46:34;;;;;;;;;;;;;;;9.02;57.46;98622.44;4365655;32;33278;-85
2022/02/07 00:49:03;;;;;;;;;;;;;;;9.01;57.24;98624.28;4375011;32;34821;-85
2022/02/07 00:51:31;;;;;;;;;;;;;;;8.61;58.67;98613.53;4365210;32;35348;-85
2022/02/07 00:54:01;;;;;;;;;;;;;;;8.44;59.21;98611.00;4363767;32;35792;-85
2022/02/07 00:56:29;;;;;;;;;;;;;;;8.51;58.87;98612.03;4363411;32;33402;-85
2022/02/07 00:58:58;;;;;;;;;;;;;;;8.57;58.86;98588.38;4376692;32;34507;-84
2022/02/07 01:01:27;;;;;;;;;;;;;;;8.78;58.05;98569.34;4376391;32;35183;-85
2022/02/07 01:03:55;;;;;;;;;;;;;;;8.75;58.30;98583.78;4364304;32;33772;-85
2022/02/07 01:06:24;;;;;;;;;;;;;;;8.76;58.43;98582.78;4377190;32;33410;-85
2022/02/07 01:09:10;;;;;;;;;;;;;;;8.77;58.18;98568.53;4365469;32;33833;-85
2022/02/07 01:20:27;;;;;;;;;;;;;;;8.53;60.40;98565.00;4376855;32;34116;-86
2022/02/07 01:55:48;;;;;;;;;;;;;;;8.31;60.32;98454.28;4366305;32;36278;-84
2022/02/07 01:58:17;;;;;;;;;;;;;;;8.51;59.70;98453.00;4338019;32;33674;-84
2022/02/07 02:00:46;;;;;;;;;;;;;;;8.12;60.97;98454.53;4353516;32;33253;-84
2022/02/07 02:03:14;;;;;;;;;;;;;;;8.49;59.90;98447.88;4364821;32;34225;-85
2022/02/07 02:05:43;;;;;;;;;;;;;;;8.20;60.81;98451.94;4366305;32;34834;-84
2022/02/07 02:08:13;;;;;;;;;;;;;;;8.22;61.03;98435.88;4365687;32;35816;-84
2022/02/07 02:10:47;;;;;;;;;;;;;;;8.28;60.63;98428.12;4378809;32;33040;-85
2022/02/07 02:13:24;;;;;;;;;;;;;;;8.15;60.72;98440.13;4362642;32;33839;-85
2022/02/07 02:21:47;;;;;;;;;;;;;;;8.04;61.12;98433.34;4375825;32;31850;-85
2022/02/07 02:37:55;;;;;;;;;;;;;;;8.16;62.70;98413.50;4378388;32;35255;-85
2022/02/07 02:45:44;;;;;;;;;;;;;;;7.98;63.00;98394.25;4371751;32;33852;-85
2022/02/07 02:48:23;;;;;;;;;;;;;;;8.37;62.38;98392.69;4365868;32;35182;-85
2022/02/07 02:50:54;;;;;;;;;;;;;;;8.01;63.04;98385.16;4366398;32;34682;-84
2022/02/07 02:53:23;;;;;;;;;;;;;;;8.11;63.06;98389.31;4365677;32;32484;-84
2022/02/07 02:55:50;;;;;;;;;;;;;;;8.09;62.77;98375.41;4361595;32;32464;-84
2022/02/07 02:58:20;;;;;;;;;;;;;;;8.27;62.50;98376.13;4353337;32;35780;-85
2022/02/07 03:00:52;;;;;;;;;;;;;;;8.25;62.23;98361.38;4364453;32;34608;-84
2022/02/07 03:03:26;;;;;;;;;;;;;;;8.60;61.09;98364.56;4366874;32;33073;-84
2022/02/07 03:05:55;;;;;;;;;;;;;;;8.52;61.24;98351.28;4363661;32;32345;-84
2022/02/07 03:08:26;;;;;;;;;;;;;;;8.51;61.53;98344.34;4378369;32;35187;-84
2022/02/07 03:18:41;;;;;;;;;;;;;;;8.43;61.47;98339.84;4366131;32;34052;-84
2022/02/07 03:21:10;;;;;;;;;;;;;;;8.26;62.03;98341.84;4365442;32;35044;-84
2022/02/07 03:23:38;;;;;;;;;;;;;;;8.44;61.43;98335.38;4366124;32;33418;-85
2022/02/07 03:26:06;;;;;;;;;;;;;;;8.73;60.49;98312.66;4363578;32;34465;-84
2022/02/07 03:28:35;;;;;;;;;;;;;;;8.73;60.07;98287.97;4364461;32;33961;-85
2022/02/07 03:31:03;;;;;;;;;;;;;;;8.90;59.70;98305.50;4350979;32;33362;-84
2022/02/07 03:33:32;;;;;;;;;;;;;;;8.94;59.50;98320.91;4353154;32;31898;-85
2022/02/07 03:36:00;;;;;;;;;;;;;;;8.94;59.55;98328.88;4363339;32;33848;-85
2022/02/07 03:38:29;;;;;;;;;;;;;;;8.95;59.63;98329.69;4365506;32;34909;-85
2022/02/07 03:40:58;;;;;;;;;;;;;;;9.16;59.24;98332.63;4376591;32;35085;-84
2022/02/07 03:43:25;;;;;;;;;;;;;;;9.27;58.63;98327.75;4364771;32;33800;-85
2022/02/07 03:45:54;;;;;;;;;;;;;;;9.45;58.07;98325.69;4360604;32;34900;-84
2022/02/07 03:48:24;;;;;;;;;;;;;;;9.30;58.32;98311.50;4377940;32;35414;-84
2022/02/07 03:50:51;;;;;;;;;;;;;;;9.50;57.68;98315.41;4353391;32;34731;-84
2022/02/07 03:53:21;;;;;;;;;;;;;;;9.64;57.15;98305.88;4365499;32;33470;-84
2022/02/07 03:55:50;;;;;;;;;;;;;;;9.76;57.03;98315.94;4365928;32;34913;-84
2022/02/07 03:58:21;;;;;;;;;;;;;;;9.98;56.38;98320.44;4365459;32;35937;-84
2022/02/07 04:00:51;;;;;;;;;;;;;;;10.27;55.41;98291.34;4363732;32;34323;-84
2022/02/07 04:03:27;;;;;;;;;;;;;;;10.18;55.62;98273.00;4365044;32;33183;-85
2022/02/07 04:06:00;;;;;;;;;;;;;;;10.23;55.34;98308.66;4361946;32;34043;-85
2022/02/07 04:08:36;;;;;;;;;;;;;;;10.11;55.46;98310.06;4353498;32;36892;-85
2022/02/07 04:13:35;;;;;;;;;;;;;;;10.22;55.11;98320.31;4364241;32;32867;-85
2022/02/07 04:16:04;;;;;;;;;;;;;;;10.19;55.24;98317.16;4365677;32;34322;-85
2022/02/07 04:18:52;;;;;;;;;;;;;;;9.90;56.35;98317.00;4363374;32;35231;-85
2022/02/07 04:21:23;;;;;;;;;;;;;;;10.27;55.17;98323.25;4366995;32;36053;-85
2022/02/07 04:23:51;;;;;;;;;;;;;;;10.21;55.20;98326.59;4365406;32;33254;-85
2022/02/07 04:26:20;;;;;;;;;;;;;;;10.09;55.81;98328.03;4362922;32;34657;-85
2022/02/07 04:28:49;;;;;;;;;;;;;;;9.77;57.40;98322.91;4362706;32;36137;-84
2022/02/07 04:31:18;;;;;;;;;;;;;;;10.08;56.64;98334.34;4361846;32;35818;-85
2022/02/07 04:33:50;;;;;;;;;;;;;;;10.23;56.26;98329.09;4353585;32;33405;-85
2022/02/07 04:36:18;;;;;;;;;;;;;;;10.12;56.63;98326.84;4363682;32;33985;-85
2022/02/07 04:38:46;;;;;;;;;;;;;;;10.13;56.84;98324.03;4364807;32;34249;-85
2022/02/07 04:41:15;;;;;;;;;;;;;;;10.11;57.05;98323.34;4363165;32;34798;-84
2022/02/07 04:43:52;;;;;;;;;;;;;;;9.94;57.89;98326.28;4370584;32;33371;-85
2022/02/07 04:57:30;;;;;;;;;;;;;;;9.27;62.15;98338.38;4361342;32;33833;-84
2022/02/07 04:59:21;;;;;;;;;;;;;;;9.60;61.49;98342.56;4368602;32;35203;-84
2022/02/07 05:01:56;;;;;;;;;;;;;;;9.20;63.16;98345.38;4364210;32;34908;-84
2022/02/07 05:04:31;;;;;;;;;;;;;;;9.39;63.00;98352.09;4378609;32;33536;-84
2022/02/07 05:15:28;;;;;;;;;;;;;;;8.28;67.44;98358.41;4365230;32;33965;-84
2022/02/07 05:17:59;;;;;;;;;;;;;;;8.55;66.84;98350.94;4337470;32;33872;-84
2022/02/07 05:20:27;;;;;;;;;;;;;;;8.34;67.90;98358.59;4364601;32;35197;-84
2022/02/07 05:22:59;;;;;;;;;;;;;;;8.39;68.01;98366.03;4363469;32;34700;-84
2022/02/07 05:25:29;;;;;;;;;;;;;;;8.41;67.62;98378.13;4364956;32;33212;-84
2022/02/07 05:27:58;;;;;;;;;;;;;;;8.30;68.04;98377.63;4349672;32;34528;-84
2022/02/07 05:30:27;;;;;;;;;;;;;;;8.23;69.08;98374.81;4374889;32;36054;-84
2022/02/07 05:32:56;;;;;;;;;;;;;;;8.05;69.80;98378.53;4357765;32;34520;-85
2022/02/07 05:35:23;;;;;;;;;;;;;;;8.01;70.34;98380.69;4359337;32;33387;-84
2022/02/07 05:37:53;;;;;;;;;;;;;;;7.99;71.15;98377.37;4356450;32;32392;-85
2022/02/07 05:40:38;;;;;;;;;;;;;;;8.03;71.83;98378.69;4379824;32;35249;-86
2022/02/07 05:43:08;;;;;;;;;;;;;;;8.05;72.12;98387.31;4369843;32;34582;-86
2022/02/07 05:45:36;;;;;;;;;;;;;;;7.82;73.23;98388.09;4381549;32;32860;-83
2022/02/07 05:48:06;;;;;;;;;;;;;;;8.29;72.02;98386.56;4366963;32;34437;-86
2022/02/07 05:50:34;;;;;;;;;;;;;;;8.18;71.86;98390.31;4379663;32;34953;-86
2022/02/07 05:53:05;;;;;;;;;;;;;;;7.99;72.74;98398.56;4367378;32;36016;-84
2022/02/07 05:55:37;;;;;;;;;;;;;;;8.35;71.10;98389.38;4367661;32;33831;-87
2022/02/07 05:58:28;;;;;;;;;;;;;;;8.22;71.25;98396.16;4358018;32;33613;-85
2022/02/07 06:01:06;;;;;;;;;;;;;;;8.30;71.29;98396.16;4371929;32;35050;-87
2022/02/07 06:03:35;;;;;;;;;;;;;;;8.14;71.33;98390.81;4379071;32;34367;-87
2022/02/07 06:06:06;;;;;;;;;;;;;;;8.42;70.95;98390.38;4377643;32;34190;-91
2022/02/07 06:08:34;;;;;;;;;;;;;;;7.83;72.55;98382.63;4379502;32;34123;-88
2022/02/07 06:11:07;;;;;;;;;;;;;;;7.84;72.45;98386.91;4350475;32;36321;-89
2022/02/07 06:13:38;;;;;;;;;;;;;;;7.85;72.00;98390.41;4376586;32;34666;-88
2022/02/07 06:16:07;;;;;;;;;;;;;;;7.84;71.92;98394.03;4360090;32;33437;-90
2022/02/07 06:18:35;;;;;;;;;;;;;;;7.83;71.99;98384.44;4351869;32;34041;-88
2022/02/07 06:21:05;;;;;;;;;;;;;;;7.91;72.62;98389.78;4351687;32;34174;-88
2022/02/07 06:23:34;;;;;;;;;;;;;;;8.15;71.52;98392.47;4366908;32;35107;-88
2022/02/07 06:26:02;;;;;;;;;;;;;;;7.96;71.73;98404.19;4358051;32;33034;-88
2022/02/07 06:28:30;;;;;;;;;;;;;;;7.96;72.33;98419.22;4358518;32;32846;-87
2022/02/07 06:31:01;;;;;;;;;;;;;;;7.80;72.63;98427.94;4364448;32;35832;-88
2022/02/07 06:33:29;;;;;;;;;;;;;;;7.67;73.14;98422.28;4344402;32;33445;-89
2022/02/07 06:36:01;;;;;;;;;;;;;;;7.87;72.60;98414.91;4376270;32;34121;-90
2022/02/07 06:38:29;;;;;;;;;;;;;;;7.78;72.59;98410.56;4352985;32;32818;-86
2022/02/07 06:40:57;;;;;;;;;;;;;;;7.78;72.43;98414.06;4354243;32;35435;-90
2022/02/07 06:43:25;;;;;;;;;;;;;;;7.24;73.81;98409.16;4373466;32;34416;-88
2022/02/07 06:45:54;;;;;;;;;;;;;;;7.69;72.52;98414.16;4350484;32;33726;-89
2022/02/07 06:48:22;;;;;;;;;;;;;;;7.83;71.59;98418.88;4360233;32;34072;-90
2022/02/07 06:50:50;;;;;;;;;;;;;;;7.65;71.91;98404.91;4360149;32;34159;-88
2022/02/07 06:53:18;;;;;;;;;;;;;;;7.65;71.79;98420.78;4348420;32;33697;-89
2022/02/07 06:55:48;;;;;;;;;;;;;;;7.66;71.66;98427.72;4349163;32;32400;-89
2022/02/07 06:58:17;;;;;;;;;;;;;;;7.71;71.06;98428.91;4363272;32;34736;-88
2022/02/07 07:00:45;;;;;;;;;;;;;;;7.67;70.84;98435.53;4362600;32;35907;-90
2022/02/07 07:03:17;;;;;;;;;;;;;;;7.66;70.39;98438.31;4347245;32;35372;-90
2022/02/07 07:05:49;;;;;;;;;;;;;;;7.59;70.87;98442.56;4328773;32;32083;-88
2022/02/07 07:08:17;;;;;;;;;;;;;;;8.06;69.02;98457.00;4350708;32;33769;-89
2022/02/07 07:10:46;;;;;;;;;;;;;;;7.85;69.41;98469.84;4375842;32;35608;-87
2022/02/07 07:13:20;;;;;;;;;;;;;;;7.78;69.08;98472.28;4362700;32;35363;-88
2022/02/07 07:16:00;;;;;;;;;;;;;;;7.74;69.23;98489.47;4351480;32;32627;-89
2022/02/07 07:18:30;;;;;;;;;;;;;;;7.67;69.06;98485.81;4351915;32;32758;-90
2022/02/07 07:20:58;;;;;;;;;;;;;;;7.67;69.28;98496.41;4346645;32;34122;-89
2022/02/07 07:23:25;;;;;;;;;;;;;;;7.65;68.75;98494.88;4350303;32;33683;-87
2022/02/07 07:25:54;;;;;;;;;;;;;;;7.33;70.39;98498.16;4376101;32;34131;-86
2022/02/07 07:28:25;;;;;;;;;;;;;;;7.60;68.68;98505.94;4376480;32;33680;-88
2022/02/07 07:30:57;;;;;;;;;;;;;;;7.59;68.18;98498.16;4350363;32;34377;-86
2022/02/07 07:33:26;;;;;;;;;;;;;;;7.68;67.37;98508.63;4362318;32;34002;-90
2022/02/07 07:35:57;;;;;;;;;;;;;;;7.44;68.36;98511.12;4350801;32;32950;-88
2022/02/07 07:38:25;;;;;;;;;;;;;;;7.63;66.62;98512.75;4375907;32;34148;-89
2022/02/07 07:40:54;;;;;;;;;;;;;;;7.67;66.50;98517.56;4349938;32;33968;-87
2022/02/07 07:43:23;;;;;;;;;;;;;;;7.81;66.48;98516.97;4359706;32;35435;-90
2022/02/07 07:46:07;;;;;;;;;;;;;;;7.67;65.88;98525.50;4362475;32;32733;-88
2022/02/07 07:48:37;;;;;;;;;;;;;;;7.68;66.14;98528.97;4363033;32;33441;-89
2022/02/07 07:51:23;;;;;;;;;;;;;;;7.59;66.97;98532.56;4351053;32;34226;-90
2022/02/07 07:54:17;;;;;;;;;;;;;;;7.34;67.92;98547.44;4349757;32;34606;-85
2022/02/07 08:02:24;;;;;;;;;;;;;;;6.22;70.73;98578.03;4374363;32;35346;-88
2022/02/07 08:04:55;;;;;;;;;;;;;;;6.18;71.38;98578.47;4355371;32;34231;-90
2022/02/07 08:07:34;;;;;;;;;;;;;;;6.10;71.94;98597.69;4359216;32;32558;-86
2022/02/07 08:12:35;;;;;;;;;;;;;;;5.59;74.48;98630.75;4356761;32;34783;-85
2022/02/07 08:15:03;;;;;;;;;;;;;;;5.59;73.80;98633.38;4369489;32;33755;-89
2022/02/07 08:17:30;;;;;;;;;;;;;;;5.33;75.29;98640.22;4362084;32;32598;-86
2022/02/07 08:19:58;;;;;;;;;;;;;;;5.43;74.23;98628.66;4362474;32;33706;-89
2022/02/07 08:22:26;;;;;;;;;;;;;;;5.61;73.96;98637.53;4337360;32;35281;-90
2022/02/07 08:25:00;;;;;;;;;;;;;;;5.55;74.59;98638.09;4350317;32;32980;-87
2022/02/07 08:27:29;;;;;;;;;;;;;;;5.54;74.34;98619.78;4364804;32;32358;-88
2022/02/07 08:29:56;;;;;;;;;;;;;;;5.56;74.34;98631.00;4358653;32;34122;-88
2022/02/07 08:32:24;;;;;;;;;;;;;;;5.47;74.87;98628.41;4346777;32;34016;-87
2022/02/07 08:34:53;;;;;;;;;;;;;;;5.34;74.76;98641.88;4363171;32;35606;-87
2022/02/07 08:37:22;;;;;;;;;;;;;;;5.71;74.34;98633.06;4363158;32;33744;-89
2022/02/07 08:39:49;;;;;;;;;;;;;;;5.54;74.61;98643.50;4362479;32;34745;-89
2022/02/07 08:42:17;;;;;;;;;;;;;;;5.53;73.94;98639.22;4350254;32;33979;-87
2022/02/07 08:44:44;;;;;;;;;;;;;;;5.78;73.62;98628.06;4368563;32;35028;-87
2022/02/07 08:47:11;;;;;;;;;;;;;;;5.85;72.66;98631.81;4357943;32;33758;-89
2022/02/07 08:49:39;;;;;;;;;;;;;;;5.94;71.99;98647.62;4350677;32;32703;-89
2022/02/07 08:52:07;;;;;;;;;;;;;;;5.89;72.88;98656.97;4363270;32;34629;-91
2022/02/07 08:54:35;;;;;;;;;;;;;;;5.95;71.69;98659.03;4370996;32;35201;-86
2022/02/07 08:57:30;;;;;;;;;;;;;;;6.20;70.63;98655.75;4338275;32;32241;-88
2022/02/07 09:00:38;;;;;;;;;;;;;;;6.36;70.12;98667.34;4352201;32;33236;-87
2022/02/07 09:08:06;;;;;;;;;;;;;;;6.27;68.86;98694.66;4363050;32;32019;-87
2022/02/07 09:10:42;;;;;;;;;;;;;;;6.06;69.85;98715.13;4395948;27;33748;-85
2022/02/07 09:13:10;;;;;;;;;;;;;;;6.05;70.83;98716.09;4364083;32;35193;-84
2022/02/07 09:18:07;;;;;;;;;;;;;;;5.98;69.49;98730.00;4368177;32;33239;-85
2022/02/07 09:20:37;;;;;;;;;;;;;;;6.10;70.35;98728.87;4366877;32;34190;-85
2022/02/07 09:23:05;;;;;;;;;;;;;;;6.12;71.54;98746.25;4354289;32;34147;-86
2022/02/07 09:25:32;;;;;;;;;;;;;;;6.20;71.33;98759.56;4360159;32;36034;-83
2022/02/07 09:28:01;;;;;;;;;;;;;;;6.13;71.63;98770.81;4354599;32;32887;-86
2022/02/07 09:30:28;;;;;;;;;;;;;;;6.35;71.81;98773.16;4366177;32;34835;-83
2022/02/07 09:32:55;;;;;;;;;;;;;;;6.19;72.13;98759.72;4368238;32;34903;-86
2022/02/07 09:35:23;;;;;;;;;;;;;;;6.15;71.64;98776.81;4354958;32;34633;-83
2022/02/07 09:37:50;;;;;;;;;;;;;;;5.85;72.05;98782.25;4353932;32;32998;-84
2022/02/07 09:40:20;;;;;;;;;;;;;;;5.90;71.00;98790.59;4353508;32;34186;-85
2022/02/07 09:42:55;;;;;;;;;;;;;;;5.89;70.45;98794.19;4359095;32;34436;-91
2022/02/07 09:45:31;;;;;;;;;;;;;;;5.89;71.76;98802.94;4365698;32;33917;-88
2022/02/07 09:47:59;;;;;;;;;;;;;;;5.87;69.22;98818.09;4366591;32;33476;-83
2022/02/07 09:50:27;;;;;;;;;;;;;;;5.83;70.55;98800.03;4366394;32;33335;-84
2022/02/07 09:52:54;;;;;;;;;;;;;;;5.85;70.05;98808.62;4365093;32;34158;-85
2022/02/07 09:55:22;;;;;;;;;;;;;;;6.12;67.31;98796.41;4364919;32;34664;-83
2022/02/07 09:57:52;;;;;;;;;;;;;;;6.17;67.12;98798.63;4351996;32;33282;-88
2022/02/07 10:00:28;;;;;;;;;;;;;;;6.11;66.28;98812.37;4365014;32;34447;-85
2022/02/07 10:03:30;;;;;;;;;;;;;;;6.20;66.94;98812.37;4366262;32;35138;-89
2022/02/07 10:06:11;;;;;;;;;;;;;;;6.37;66.76;98806.38;4352146;32;34390;-86
2022/02/07 10:08:56;;;;;;;;;;;;;;;6.79;67.43;98822.69;4365355;32;32283;-86
2022/02/07 10:11:47;;;;;;;;;;;;;;;7.04;64.99;98827.31;4351835;32;33092;-84
2022/02/07 10:14:25;;;;;;;;;;;;;;;7.05;64.09;98847.47;4365999;32;35581;-87
2022/02/07 10:17:17;;;;;;;;;;;;;;;7.31;63.66;98854.62;4365276;32;35143;-89
2022/02/07 10:39:55;;;;;;;;;;;;;;;7.63;54.75;98901.81;4369029;32;34945;-85
2022/02/07 10:45:04;;;;;;;;;;;;;;;7.97;53.13;98890.47;4355339;32;33230;-86
2022/02/07 10:47:40;;;;;;;;;;;;;;;8.20;52.65;98893.53;4367407;32;33475;-83
2022/02/07 10:50:14;;;;;;;;;;;;;;;7.94;50.69;98887.28;4369103;32;35424;-88
2022/02/07 10:52:53;;;;;;;;;;;;;;;7.93;49.56;98880.31;4355493;32;33051;-86
2022/02/07 10:55:24;;;;;;;;;;;;;;;7.91;50.00;98869.03;4353537;32;34904;-87
2022/02/07 10:57:53;;;;;;;;;;;;;;;8.15;50.52;98856.88;4366167;32;34829;-85
2022/02/07 11:00:23;;;;;;;;;;;;;;;8.26;49.63;98851.38;4349029;32;34931;-85
2022/02/07 11:03:19;;;;;;;;;;;;;;;8.18;49.46;98851.25;4355042;32;32797;-84
2022/02/07 11:05:50;;;;;;;;;;;;;;;8.53;51.11;98873.28;4365976;32;33087;-84
2022/02/07 11:08:23;;;;;;;;;;;;;;;8.53;49.46;98872.47;4365164;32;34233;-84
2022/02/07 11:22:47;;;;;;;;;;;;;;;8.10;49.51;98921.88;4346314;32;33716;-87
2022/02/07 11:27:54;;;;;;;;;;;;;;;7.91;46.63;98920.19;4347043;32;32516;-84
2022/02/07 11:30:34;;;;;;;;;;;;;;;7.66;48.44;98935.94;4349172;32;35798;-83
2022/02/07 11:33:01;;;;;;;;;;;;;;;7.46;47.64;98934.34;4365538;32;33837;-84
2022/02/07 11:35:33;;;;;;;;;;;;;;;7.78;48.60;98932.94;4365193;32;32822;-83
2022/02/07 11:38:00;;;;;;;;;;;;;;;8.03;48.78;98926.09;4329382;32;34094;-83
2022/02/07 11:40:31;;;;;;;;;;;;;;;7.97;48.37;98954.03;4362989;32;34680;-85
2022/02/07 11:43:08;;;;;;;;;;;;;;;7.98;49.04;98941.59;4364192;32;35340;-86
2022/02/07 11:45:46;;;;;;;;;;;;;;;8.19;47.98;98939.56;4352771;32;33086;-82
2022/02/07 11:48:14;;;;;;;;;;;;;;;8.07;48.45;98946.00;4363626;32;33211;-84
2022/02/07 11:50:42;;;;;;;;;;;;;;;8.46;50.11;98966.81;4349513;32;34293;-83
2022/02/07 11:53:09;;;;;;;;;;;;;;;8.49;48.95;98977.13;4341742;32;35161;-82
2022/02/07 11:55:40;;;;;;;;;;;;;;;8.61;49.52;98966.13;4344322;32;32649;-84
2022/02/07 12:00:43;;;;;;;;;;;;;;;8.51;48.08;98981.28;4366892;32;33045;-81
2022/02/07 12:03:12;;;;;;;;;;;;;;;8.60;48.38;98991.00;4351650;32;34827;-86
2022/02/07 12:05:45;;;;;;;;;;;;;;;8.52;45.80;99003.34;4341984;32;31343;-90
2022/02/07 12:08:20;;;;;;;;;;;;;;;8.36;46.61;98991.72;4357037;32;33442;-84
2022/02/07 12:10:49;;;;;;;;;;;;;;;8.32;47.66;99001.81;4356135;32;35378;-84
2022/02/07 12:13:31;;;;;;;;;;;;;;;8.20;47.84;99002.16;4356041;32;33506;-83
2022/02/07 12:16:02;;;;;;;;;;;;;;;8.20;47.70;99012.75;4342869;32;32972;-87
2022/02/07 12:18:31;;;;;;;;;;;;;;;8.07;47.67;99026.31;4354220;32;32420;-83
2022/02/07 12:21:17;;;;;;;;;;;;;;;8.69;47.92;99027.19;4356264;32;35988;-85
2022/02/07 12:23:48;;;;;;;;;;;;;;;8.66;45.92;99035.47;4365060;32;34782;-80
2022/02/07 12:26:17;;;;;;;;;;;;;;;8.93;46.92;99023.94;4340556;32;33813;-86
2022/02/07 12:28:45;;;;;;;;;;;;;;;8.64;45.80;99037.44;4353530;32;33539;-85
2022/02/07 12:31:18;;;;;;;;;;;;;;;8.76;46.03;99035.38;4355289;32;34776;-81
2022/02/07 12:33:53;;;;;;;;;;;;;;;8.66;46.59;99045.22;4354228;32;34430;-88
2022/02/07 12:36:21;;;;;;;;;;;;;;;9.07;46.04;99042.81;4354373;32;34109;-81
2022/02/07 12:38:48;;;;;;;;;;;;;;;8.86;46.50;99052.91;4354955;32;33086;-83
2022/02/07 12:41:16;;;;;;;;;;;;;;;8.84;44.92;99054.03;4350960;32;35839;-83
2022/02/07 12:43:44;;;;;;;;;;;;;;;8.66;45.43;99053.19;4349812;32;34218;-82
2022/02/07 12:46:13;;;;;;;;;;;;;;;8.37;45.73;99071.09;4350671;32;32395;-83
2022/02/07 12:48:49;;;;;;;;;;;;;;;8.09;46.00;99064.09;4343103;32;32652;-88
2022/02/07 12:51:21;;;;;;;;;;;;;;;7.86;46.19;99099.88;4364395;32;34980;-83
2022/02/07 12:53:52;;;;;;;;;;;;;;;8.31;45.95;99097.34;4339454;32;33830;-79
2022/02/07 12:56:20;;;;;;;;;;;;;;;8.85;46.83;99098.97;4349506;32;33779;-83
2022/02/07 12:58:48;;;;;;;;;;;;;;;8.50;44.41;99119.25;4353928;32;33533;-82
2022/02/07 13:01:16;;;;;;;;;;;;;;;8.54;43.50;99136.56;4363448;32;35928;-83
2022/02/07 13:03:51;;;;;;;;;;;;;;;8.49;43.62;99136.16;4350759;32;34754;-79
2022/02/07 13:06:23;;;;;;;;;;;;;;;8.60;45.50;99128.03;4361902;32;34034;-84
2022/02/07 13:09:17;;;;;;;;;;;;;;;8.77;45.12;99135.16;4352721;32;33336;-81
2022/02/07 13:11:48;;;;;;;;;;;;;;;8.95;45.45;99128.06;4365645;32;35102;-81
2022/02/07 13:14:16;;;;;;;;;;;;;;;9.01;45.23;99115.06;4350459;32;35402;-81
2022/02/07 13:16:44;;;;;;;;;;;;;;;8.56;46.05;99150.50;4351745;32;33137;-82
2022/02/07 13:19:12;;;;;;;;;;;;;;;8.71;44.90;99151.69;4350359;32;32712;-79
2022/02/07 13:21:42;;;;;;;;;;;;;;;8.77;45.48;99151.06;4352789;32;35025;-81
2022/02/07 13:24:09;;;;;;;;;;;;;;;9.10;45.49;99155.75;4366486;32;32686;-81
2022/02/07 13:26:38;;;;;;;;;;;;;;;9.16;45.80;99171.09;4367957;32;32843;-80
2022/02/07 13:29:05;;;;;;;;;;;;;;;9.25;44.87;99183.47;4366163;32;34021;-80
2022/02/07 13:31:36;;;;;;;;;;;;;;;8.78;45.42;99180.13;4353871;32;35309;-82
2022/02/07 13:34:05;;;;;;;;;;;;;;;8.82;45.53;99185.97;4352084;32;35466;-82
2022/02/07 13:36:41;;;;;;;;;;;;;;;8.81;46.47;99198.38;4367985;32;33523;-80
2022/02/07 13:39:08;;;;;;;;;;;;;;;9.62;45.84;99211.53;4366548;32;33295;-80
2022/02/07 13:41:36;;;;;;;;;;;;;;;10.15;44.91;99219.44;4352963;32;35308;-82
2022/02/07 13:44:04;;;;;;;;;;;;;;;10.35;42.59;99224.41;4334966;32;34762;-79
2022/02/07 13:46:32;;;;;;;;;;;;;;;10.63;42.14;99215.28;4364524;32;33290;-80
2022/02/07 13:49:00;;;;;;;;;;;;;;;10.95;40.76;99222.56;4366292;32;34772;-81
2022/02/07 13:51:28;;;;;;;;;;;;;;;10.92;39.75;99222.87;4366594;32;34875;-80
2022/02/07 13:53:56;;;;;;;;;;;;;;;10.71;39.74;99228.63;4365945;32;35171;-80
2022/02/07 13:56:33;;;;;;;;;;;;;;;9.83;40.70;99241.25;4366862;32;33576;-81
2022/02/07 13:59:19;;;;;;;;;;;;;;;9.87;40.61;99242.62;4367081;32;34497;-80
2022/02/07 14:01:48;;;;;;;;;;;;;;;9.91;40.29;99267.06;4367616;32;34320;-80
2022/02/07 14:04:17;;;;;;;;;;;;;;;9.72;40.60;99260.06;4368771;32;35468;-79
2022/02/07 14:07:05;;;;;;;;;;;;;;;9.98;39.66;99262.78;4369021;32;32996;-83
2022/02/07 14:09:32;;;;;;;;;;;;;;;9.96;39.87;99270.94;4369370;32;34077;-79
2022/02/07 14:12:01;;;;;;;;;;;;;;;9.71;41.15;99300.06;4367430;32;35400;-80
2022/02/07 14:14:29;;;;;;;;;;;;;;;9.62;41.70;99282.41;4367841;32;34821;-82
2022/02/07 14:16:57;;;;;;;;;;;;;;;9.82;40.80;99313.16;4355097;32;31420;-79
2022/02/07 14:19:37;;;;;;;;;;;;;;;9.53;40.11;99294.75;4343453;32;32286;-81
2022/02/07 14:22:05;;;;;;;;;;;;;;;9.70;39.92;99301.03;4369443;32;34791;-81
2022/02/07 14:24:33;;;;;;;;;;;;;;;9.70;40.68;99285.97;4355634;32;33469;-80
2022/02/07 14:27:15;;;;;;;;;;;;;;;9.47;41.56;99299.81;4366548;32;33625;-79
2022/02/07 14:29:42;;;;;;;;;;;;;;;9.15;41.17;99302.94;4367939;32;34959;-79
2022/02/07 14:32:20;;;;;;;;;;;;;;;8.71;41.72;99316.09;4367830;32;36220;-81
2022/02/07 14:34:47;;;;;;;;;;;;;;;9.13;42.22;99323.47;4341472;32;33605;-81
2022/02/07 14:37:15;;;;;;;;;;;;;;;9.36;41.40;99338.00;4354325;32;33308;-81
2022/02/07 14:39:44;;;;;;;;;;;;;;;9.43;42.48;99340.91;4366809;32;34245;-80
2022/02/07 14:42:11;;;;;;;;;;;;;;;9.36;42.33;99343.31;4366913;32;35878;-80
2022/02/07 14:44:46;;;;;;;;;;;;;;;9.41;41.77;99343.72;4367199;32;33976;-82
2022/02/07 14:47:27;;;;;;;;;;;;;;;8.81;42.38;99346.91;4341458;32;31889;-79
2022/02/07 14:49:54;;;;;;;;;;;;;;;8.46;43.16;99353.81;4367611;32;33802;-79
2022/02/07 15:02:03;;;;;;;;;;;;;;;8.81;42.39;99367.28;4356986;32;34963;-80
2022/02/07 15:05:21;;;;;;;;;;;;;;;9.21;41.31;99370.50;4335220;32;35941;-80
2022/02/07 15:17:34;;;;;;;;;;;;;;;;;;;;;
2022/02/07 15:20:22;;;;;;;;;;;;;;;8.96;41.75;99377.31;4301193;33;34612;-82
2022/02/07 15:23:52;;;;;;;;;;;;;;;8.27;43.32;99385.63;4301134;33;32146;-82
2022/02/07 15:33:42;;;;;;;;;;;;;;;8.26;43.61;99404.31;4276279;33;34914;-79
2022/02/07 15:39:19;;;;;;;;;;;;;;;7.90;44.94;99426.97;4297646;33;32001;-82
2022/02/07 15:42:07;;;;;;;;;;;;;;;7.52;45.94;99431.31;4314045;33;35827;-82
2022/02/07 15:45:07;;;;;;;;;;;;;;;7.20;47.06;99442.06;4313563;33;34445;-81
2022/02/07 15:54:24;;;;;;;;;;;;;;;6.87;47.10;99478.44;4314768;33;35875;-83
2022/02/07 16:04:50;;;;;;;;;;;;;;;6.96;46.89;99514.69;4291149;33;33036;-82
2022/02/07 16:07:09;;;;;;;;;;;;;;;6.69;47.47;99512.56;4331979;33;35569;-81
2022/02/07 16:10:38;;;;;;;;;;;;;;;6.49;47.89;99521.28;4354405;32;35978;-82
2022/02/07 16:13:32;;;;;;;;;;;;;;;6.73;47.07;99521.06;4341877;33;33213;-81
2022/02/07 16:19:49;;;;;;;;;;;;;;;;;;;;;
2022/02/07 16:25:46;;;;;;;;;;;;;;;6.51;47.02;99560.81;4314774;33;32674;-83
2022/02/07 16:28:43;;;;;;;;;;;;;;;6.47;47.00;99564.66;4327558;33;33127;-78
2022/02/07 16:41:15;;;;;;;;;;;;;;;;;;;;;
2022/02/07 16:44:10;;;;;;;;;;;;;;;6.31;47.60;99567.69;4329875;33;34547;-82
2022/02/07 16:47:16;;;;;;;;;;;;;;;6.03;47.43;99586.69;4327298;33;34557;-83
2022/02/07 16:50:41;;;;;;;;;;;;;;;6.17;47.45;99577.69;4352403;32;33422;-87
2022/02/07 16:57:10;;;;;;;;;;;;;;;6.02;47.93;99600.88;4332743;33;35154;-82
2022/02/07 17:07:20;;;;;;;;;;;;;;;6.02;49.16;99622.00;4310046;33;34151;-82
2022/02/07 17:10:01;;;;;;;;;;;;;;;5.88;49.13;99619.56;4341790;33;35225;-83
2022/02/07 17:15:56;;;;;;;;;;;;;;;6.10;49.66;99629.31;4338085;33;32254;-81